createdAt,value
2023-02-18T00:01:48.637Z,6.70
2023-02-18T00:04:19.609Z,6.64
2023-02-18T00:06:50.608Z,6.59
2023-02-18T00:09:27.198Z,6.52
2023-02-18T00:14:59.013Z,6.40
2023-02-18T00:17:36.167Z,6.38
2023-02-18T00:20:08.557Z,6.37
2023-02-18T00:22:57.194Z,6.37
2023-02-18T00:26:00.416Z,6.33
2023-02-18T00:28:45.669Z,6.27
2023-02-18T00:31:19.432Z,6.25
2023-02-18T00:33:50.556Z,6.25
2023-02-18T00:36:43.283Z,6.26
2023-02-18T00:39:14.022Z,6.22
2023-02-18T00:41:44.951Z,6.21
2023-02-18T00:44:15.874Z,6.20
2023-02-18T00:46:48.415Z,6.20
2023-02-18T00:49:19.248Z,6.21
2023-02-18T00:51:50.602Z,6.18
2023-02-18T00:54:21.433Z,6.17
2023-02-18T00:56:52.239Z,6.17
2023-02-18T00:59:23.070Z,6.15
2023-02-18T01:01:53.967Z,6.17
2023-02-18T01:04:24.897Z,6.18
2023-02-18T01:06:55.713Z,6.20
2023-02-18T01:09:27.044Z,6.21
2023-02-18T01:11:57.901Z,6.19
2023-02-18T01:14:28.896Z,6.19
2023-02-18T01:16:59.805Z,6.19
2023-02-18T01:19:30.753Z,6.20
2023-02-18T01:22:01.668Z,6.22
2023-02-18T01:24:32.566Z,6.22
2023-02-18T01:27:05.759Z,6.25
2023-02-18T01:29:36.601Z,6.31
2023-02-18T01:32:07.627Z,6.35
2023-02-18T01:34:38.625Z,6.38
2023-02-18T01:37:09.491Z,6.39
2023-02-18T01:39:40.226Z,6.40
2023-02-18T01:42:15.830Z,6.39
2023-02-18T01:44:47.729Z,6.38
2023-02-18T01:47:18.871Z,6.36
2023-02-18T01:49:51.168Z,6.32
2023-02-18T01:52:22.714Z,6.31
2023-02-18T01:54:57.776Z,6.31
2023-02-18T01:57:29.183Z,6.31
2023-02-18T02:00:00.358Z,6.31
2023-02-18T02:02:31.913Z,6.31
2023-02-18T02:05:04.415Z,6.30
2023-02-18T02:07:35.249Z,6.29
2023-02-18T02:10:06.566Z,6.30
2023-02-18T02:12:41.130Z,6.26
2023-02-18T02:15:24.576Z,6.23
2023-02-18T02:18:00.343Z,6.23
2023-02-18T02:20:47.472Z,6.18
2023-02-18T02:23:46.962Z,6.13
2023-02-18T02:26:28.851Z,6.14
2023-02-18T02:29:06.123Z,6.18
2023-02-18T02:31:53.071Z,6.21
2023-02-18T02:34:40.645Z,6.21
2023-02-18T02:37:13.036Z,6.23
2023-02-18T02:39:45.352Z,6.26
2023-02-18T02:42:17.425Z,6.26
2023-02-18T02:44:49.583Z,6.30
2023-02-18T02:47:21.771Z,6.32
2023-02-18T02:49:54.980Z,6.33
2023-02-18T02:52:27.768Z,6.34
2023-02-18T02:54:58.581Z,6.36
2023-02-18T02:57:44.661Z,6.33
2023-02-18T03:00:16.440Z,6.34
2023-02-18T03:02:52.439Z,6.38
2023-02-18T03:05:25.734Z,6.38
2023-02-18T03:08:10.031Z,6.40
2023-02-18T03:10:47.369Z,6.42
2023-02-18T03:13:23.707Z,6.44
2023-02-18T03:15:57.278Z,6.46
2023-02-18T03:18:30.493Z,6.49
2023-02-18T03:21:01.865Z,6.52
2023-02-18T03:23:34.071Z,6.55
2023-02-18T03:26:05.063Z,6.57
2023-02-18T03:28:35.984Z,6.60
2023-02-18T03:31:09.475Z,6.61
2023-02-18T03:33:41.225Z,6.61
2023-02-18T03:36:12.264Z,6.59
2023-02-18T03:38:44.210Z,6.57
2023-02-18T03:41:14.984Z,6.57
2023-02-18T03:43:51.870Z,6.59
2023-02-18T03:46:22.806Z,6.62
2023-02-18T03:48:53.745Z,6.65
2023-02-18T03:51:24.739Z,6.66
2023-02-18T03:53:55.686Z,6.68
2023-02-18T03:56:27.820Z,6.71
2023-02-18T03:58:58.613Z,6.76
2023-02-18T04:01:29.823Z,6.79
2023-02-18T04:04:00.727Z,6.83
2023-02-18T04:06:31.635Z,6.87
2023-02-18T04:09:02.797Z,6.88
2023-02-18T04:11:33.739Z,6.87
2023-02-18T04:14:04.832Z,6.87
2023-02-18T04:16:35.691Z,6.85
2023-02-18T04:19:06.573Z,6.82
2023-02-18T04:21:37.339Z,6.81
2023-02-18T04:24:08.522Z,6.80
2023-02-18T04:26:39.500Z,6.78
2023-02-18T04:29:10.665Z,6.75
2023-02-18T04:31:41.759Z,6.72
2023-02-18T04:34:12.812Z,6.70
2023-02-18T04:36:43.635Z,6.70
2023-02-18T04:39:14.770Z,6.70
2023-02-18T04:41:45.505Z,6.67
2023-02-18T04:44:16.258Z,6.67
2023-02-18T04:46:47.038Z,6.67
2023-02-18T04:49:17.829Z,6.67
2023-02-18T04:51:48.547Z,6.64
2023-02-18T04:54:19.268Z,6.63
2023-02-18T04:56:50.118Z,6.60
2023-02-18T04:59:20.844Z,6.61
2023-02-18T05:01:51.755Z,6.61
2023-02-18T05:04:22.703Z,6.61
2023-02-18T05:06:53.708Z,6.59
2023-02-18T05:09:24.544Z,6.59
2023-02-18T05:11:55.911Z,6.57
2023-02-18T05:14:26.611Z,6.54
2023-02-18T05:16:57.480Z,6.49
2023-02-18T05:19:28.624Z,6.48
2023-02-18T05:21:59.536Z,6.49
2023-02-18T05:24:32.320Z,6.50
2023-02-18T05:27:02.978Z,6.50
2023-02-18T05:29:33.932Z,6.54
2023-02-18T05:32:04.789Z,6.56
2023-02-18T05:34:35.679Z,6.62
2023-02-18T05:37:06.548Z,6.66
2023-02-18T05:39:37.262Z,6.69
2023-02-18T05:42:10.549Z,6.75
2023-02-18T05:44:41.339Z,6.81
2023-02-18T05:47:12.840Z,6.86
2023-02-18T05:49:43.840Z,6.91
2023-02-18T05:52:14.766Z,6.94
2023-02-18T05:54:45.994Z,6.98
2023-02-18T05:57:16.910Z,7.02
2023-02-18T05:59:47.755Z,7.03
2023-02-18T06:02:18.699Z,7.07
2023-02-18T06:04:51.935Z,7.10
2023-02-18T06:07:22.660Z,7.10
2023-02-18T06:09:53.966Z,7.12
2023-02-18T06:12:24.781Z,7.13
2023-02-18T06:14:55.577Z,7.14
2023-02-18T06:17:26.502Z,7.17
2023-02-18T06:19:57.383Z,7.22
2023-02-18T06:22:28.584Z,7.27
2023-02-18T06:24:59.413Z,7.32
2023-02-18T06:27:30.132Z,7.35
2023-02-18T06:30:01.032Z,7.37
2023-02-18T06:32:31.967Z,7.40
2023-02-18T06:35:02.674Z,7.44
2023-02-18T06:37:33.560Z,7.49
2023-02-18T06:40:04.418Z,7.51
2023-02-18T06:42:35.271Z,7.53
2023-02-18T06:45:06.930Z,7.56
2023-02-18T06:47:37.888Z,7.61
2023-02-18T06:50:09.280Z,7.66
2023-02-18T06:52:39.906Z,7.70
2023-02-18T06:55:10.748Z,7.74
2023-02-18T06:57:41.527Z,7.76
2023-02-18T07:00:13.033Z,7.78
2023-02-18T07:02:43.947Z,7.80
2023-02-18T07:05:14.899Z,7.85
2023-02-18T07:07:45.586Z,7.89
2023-02-18T07:10:16.588Z,7.90
2023-02-18T07:12:47.383Z,7.91
2023-02-18T07:15:18.170Z,7.93
2023-02-18T07:17:49.018Z,7.96
2023-02-18T07:20:20.129Z,7.97
2023-02-18T07:22:50.935Z,7.98
2023-02-18T07:25:23.295Z,8.01
2023-02-18T07:27:54.333Z,8.05
2023-02-18T07:30:25.215Z,8.08
2023-02-18T07:32:56.057Z,8.11
2023-02-18T07:35:26.734Z,8.15
2023-02-18T07:37:58.126Z,8.18
2023-02-18T07:40:29.243Z,8.23
2023-02-18T07:43:00.129Z,8.27
2023-02-18T07:45:31.379Z,8.32
2023-02-18T07:48:02.342Z,8.37
2023-02-18T07:50:35.703Z,8.41
2023-02-18T07:53:06.761Z,8.46
2023-02-18T07:55:54.169Z,8.52
2023-02-18T07:58:26.176Z,8.58
2023-02-18T08:00:57.493Z,8.64
2023-02-18T08:03:29.130Z,8.71
2023-02-18T08:06:00.106Z,8.77
2023-02-18T08:08:32.072Z,8.85
2023-02-18T08:11:13.396Z,8.94
2023-02-18T08:13:49.480Z,9.00
2023-02-18T08:16:21.544Z,9.06
2023-02-18T08:18:52.531Z,9.11
2023-02-18T08:21:23.789Z,9.17
2023-02-18T08:23:54.782Z,9.24
2023-02-18T08:26:25.889Z,9.29
2023-02-18T08:28:56.731Z,9.34
2023-02-18T08:31:29.101Z,9.40
2023-02-18T08:34:00.629Z,9.47
2023-02-18T08:36:31.690Z,9.52
2023-02-18T08:39:02.542Z,9.58
2023-02-18T08:41:33.352Z,9.65
2023-02-18T08:44:04.235Z,9.71
2023-02-18T08:46:36.054Z,9.77
2023-02-18T08:49:08.844Z,9.82
2023-02-18T08:51:39.676Z,9.87
2023-02-18T08:54:10.523Z,9.92
2023-02-18T08:56:42.207Z,9.97
2023-02-18T08:59:14.241Z,10.01
2023-02-18T09:01:45.300Z,10.05
2023-02-18T09:04:16.237Z,10.08
2023-02-18T09:06:47.754Z,10.12
2023-02-18T09:09:18.597Z,10.15
2023-02-18T09:11:49.427Z,10.18
2023-02-18T09:14:20.191Z,10.22
2023-02-18T09:16:51.525Z,10.23
2023-02-18T09:19:22.378Z,10.25
2023-02-18T09:21:53.579Z,10.27
2023-02-18T09:24:25.351Z,10.30
2023-02-18T09:26:56.302Z,10.34
2023-02-18T09:29:28.296Z,10.37
2023-02-18T09:31:59.226Z,10.41
2023-02-18T09:34:30.253Z,10.45
2023-02-18T09:37:01.209Z,10.48
2023-02-18T09:39:32.472Z,10.52
2023-02-18T09:42:07.113Z,10.55
2023-02-18T09:44:42.871Z,10.57
2023-02-18T09:47:14.711Z,10.60
2023-02-18T09:49:50.386Z,10.62
2023-02-18T09:52:29.790Z,10.67
2023-02-18T09:55:15.553Z,10.71
2023-02-18T09:57:47.657Z,10.74
2023-02-18T10:00:27.479Z,10.75
2023-02-18T10:03:01.581Z,10.79
2023-02-18T10:05:33.193Z,10.79
2023-02-18T10:08:06.487Z,10.83
2023-02-18T10:10:38.998Z,10.86
2023-02-18T10:13:12.692Z,10.89
2023-02-18T10:15:44.474Z,10.93
2023-02-18T10:18:21.729Z,10.98
2023-02-18T10:20:52.814Z,11.03
2023-02-18T10:23:23.674Z,11.07
2023-02-18T10:25:54.554Z,11.11
2023-02-18T10:28:25.458Z,11.16
2023-02-18T10:31:28.299Z,11.21
2023-02-18T10:33:58.003Z,11.28
2023-02-18T10:36:31.129Z,11.33
2023-02-18T10:39:08.219Z,11.35
2023-02-18T10:41:45.389Z,11.35
2023-02-18T10:44:29.440Z,11.41
2023-02-18T10:47:03.062Z,11.45
2023-02-18T10:49:44.471Z,11.51
2023-02-18T10:52:19.364Z,11.59
2023-02-18T10:55:16.412Z,11.66
2023-02-18T10:57:51.727Z,11.70
2023-02-18T11:00:24.836Z,11.73
2023-02-18T11:03:14.198Z,11.78
2023-02-18T11:05:47.546Z,11.84
2023-02-18T11:08:19.262Z,11.86
2023-02-18T11:10:50.814Z,11.88
2023-02-18T11:13:26.678Z,11.92
2023-02-18T11:15:59.265Z,11.95
2023-02-18T11:18:32.769Z,11.97
2023-02-18T11:21:06.451Z,11.98
2023-02-18T11:23:47.105Z,12.01
2023-02-18T11:26:18.262Z,12.04
2023-02-18T11:28:53.321Z,12.08
2023-02-18T11:31:27.809Z,12.10
2023-02-18T11:33:59.008Z,12.13
2023-02-18T11:36:31.471Z,12.15
2023-02-18T11:39:04.927Z,12.18
2023-02-18T11:41:37.409Z,12.21
2023-02-18T11:44:09.523Z,12.24
2023-02-18T11:47:13.651Z,12.27
2023-02-18T11:49:42.959Z,12.29
2023-02-18T11:52:19.610Z,12.33
2023-02-18T11:55:03.501Z,12.38
2023-02-18T11:57:35.173Z,12.41
2023-02-18T12:00:06.890Z,12.43
2023-02-18T12:02:40.438Z,12.47
2023-02-18T12:05:13.285Z,12.51
2023-02-18T12:07:46.302Z,12.54
2023-02-18T12:10:17.470Z,12.57
2023-02-18T12:12:49.423Z,12.59
2023-02-18T12:15:22.604Z,12.63
2023-02-18T12:17:58.308Z,12.64
2023-02-18T12:20:33.748Z,12.66
2023-02-18T12:23:06.810Z,12.71
2023-02-18T12:25:40.814Z,12.75
2023-02-18T12:28:18.605Z,12.80
2023-02-18T12:30:55.528Z,12.86
2023-02-18T12:33:28.249Z,12.93
2023-02-18T12:36:02.206Z,13.00
2023-02-18T12:38:49.970Z,13.05
2023-02-18T12:41:37.019Z,13.12
2023-02-18T12:44:24.577Z,13.18
2023-02-18T12:47:07.831Z,13.24
2023-02-18T12:50:05.197Z,13.31
2023-02-18T12:52:42.972Z,13.37
2023-02-18T12:55:25.645Z,13.42
2023-02-18T12:58:27.345Z,13.46
2023-02-18T13:01:06.867Z,13.51
2023-02-18T13:04:10.238Z,13.56
2023-02-18T13:06:52.604Z,13.60
2023-02-18T13:09:25.974Z,13.64
2023-02-18T13:11:57.797Z,13.68
2023-02-18T13:14:30.142Z,13.75
2023-02-18T13:17:01.703Z,13.84
2023-02-18T13:19:33.225Z,13.95
2023-02-18T13:22:05.778Z,14.09
2023-02-18T13:24:37.465Z,14.35
2023-02-18T13:27:10.295Z,14.68
2023-02-18T13:29:41.324Z,15.02
2023-02-18T13:32:14.520Z,15.36
2023-02-18T13:34:47.183Z,15.58
2023-02-18T13:37:19.999Z,15.81
2023-02-18T13:39:52.913Z,16.02
2023-02-18T13:42:28.438Z,16.18
2023-02-18T13:45:18.865Z,16.28
2023-02-18T13:47:49.832Z,16.38
2023-02-18T13:50:30.898Z,16.43
2023-02-18T13:53:15.798Z,16.43
2023-02-18T13:55:50.345Z,16.36
2023-02-18T13:58:21.523Z,16.26
2023-02-18T14:00:53.575Z,16.13
2023-02-18T14:03:33.543Z,16.06
2023-02-18T14:06:05.870Z,16.03
2023-02-18T14:09:02.608Z,16.08
2023-02-18T14:11:37.895Z,16.04
2023-02-18T14:14:31.176Z,16.04
2023-02-18T14:17:25.926Z,16.06
2023-02-18T14:20:15.953Z,16.08
2023-02-18T14:22:47.608Z,16.06
2023-02-18T14:25:36.223Z,16.04
2023-02-18T14:28:33.811Z,16.07
2023-02-18T14:31:05.052Z,16.07
2023-02-18T14:33:36.391Z,16.05
2023-02-18T14:36:11.693Z,16.03
2023-02-18T14:38:44.777Z,16.01
2023-02-18T14:41:25.892Z,16.00
2023-02-18T14:44:02.094Z,16.01
2023-02-18T14:46:42.804Z,15.98
2023-02-18T14:49:20.630Z,15.94
2023-02-18T14:51:52.709Z,15.89
2023-02-18T14:54:24.248Z,15.84
2023-02-18T14:56:57.057Z,15.79
2023-02-18T14:59:28.946Z,15.71
2023-02-18T15:01:59.884Z,15.65
2023-02-18T15:04:30.553Z,15.58
2023-02-18T15:07:01.813Z,15.52
2023-02-18T15:09:32.755Z,15.45
2023-02-18T15:12:04.658Z,15.38
2023-02-18T15:14:36.321Z,15.31
2023-02-18T15:17:07.054Z,15.24
2023-02-18T15:19:39.538Z,15.16
2023-02-18T15:22:14.807Z,15.10
2023-02-18T15:24:45.784Z,15.05
2023-02-18T15:27:17.092Z,15.00
2023-02-18T15:29:50.464Z,14.94
2023-02-18T15:32:22.353Z,14.87
2023-02-18T15:34:53.758Z,14.82
2023-02-18T15:37:24.538Z,14.75
2023-02-18T15:39:55.307Z,14.69
2023-02-18T15:42:28.327Z,14.63
2023-02-18T15:44:59.793Z,14.57
2023-02-18T15:47:30.725Z,14.54
2023-02-18T15:50:04.631Z,14.51
2023-02-18T15:52:36.444Z,14.47
2023-02-18T15:55:09.576Z,14.43
2023-02-18T15:57:41.648Z,14.39
2023-02-18T16:00:16.628Z,14.35
2023-02-18T16:02:57.464Z,14.29
2023-02-18T16:05:29.015Z,14.23
2023-02-18T16:08:01.076Z,14.18
2023-02-18T16:10:43.575Z,14.13
2023-02-18T16:13:16.165Z,14.06
2023-02-18T16:15:47.591Z,14.00
2023-02-18T16:18:24.380Z,13.94
2023-02-18T16:21:00.339Z,13.89
2023-02-18T16:23:41.631Z,13.85
2023-02-18T16:26:23.751Z,13.81
2023-02-18T16:29:01.518Z,13.75
2023-02-18T16:31:32.334Z,13.72
2023-02-18T16:34:05.637Z,13.68
2023-02-18T16:36:38.873Z,13.65
2023-02-18T16:39:10.795Z,13.59
2023-02-18T16:41:43.582Z,13.54
2023-02-18T16:44:15.198Z,13.49
2023-02-18T16:46:46.202Z,13.46
2023-02-18T16:49:20.393Z,13.40
2023-02-18T16:51:51.280Z,13.36
2023-02-18T16:54:22.582Z,13.32
2023-02-18T16:56:53.799Z,13.27
2023-02-18T16:59:25.838Z,13.23
2023-02-18T17:01:57.055Z,13.20
2023-02-18T17:04:28.541Z,13.17
2023-02-18T17:06:59.702Z,13.14
2023-02-18T17:09:32.208Z,13.10
2023-02-18T17:12:05.130Z,13.04
2023-02-18T17:14:36.031Z,13.00
2023-02-18T17:17:10.618Z,12.95
2023-02-18T17:19:41.577Z,12.90
2023-02-18T17:22:16.747Z,12.85
2023-02-18T17:24:47.635Z,12.81
2023-02-18T17:27:18.861Z,12.77
2023-02-18T17:29:49.491Z,12.73
2023-02-18T17:32:20.371Z,12.71
2023-02-18T17:34:52.484Z,12.68
2023-02-18T17:37:26.207Z,12.65
2023-02-18T17:39:59.762Z,12.62
2023-02-18T17:42:31.720Z,12.57
2023-02-18T17:45:06.487Z,12.52
2023-02-18T17:47:38.309Z,12.48
2023-02-18T17:50:10.420Z,12.44
2023-02-18T17:52:41.327Z,12.40
2023-02-18T17:55:15.478Z,12.35
2023-02-18T17:57:46.432Z,12.31
2023-02-18T18:00:19.013Z,12.29
2023-02-18T18:02:49.907Z,12.25
2023-02-18T18:05:22.630Z,12.22
2023-02-18T18:07:53.414Z,12.20
2023-02-18T18:10:28.583Z,12.19
2023-02-18T18:12:59.517Z,12.18
2023-02-18T18:15:31.692Z,12.19
2023-02-18T18:18:03.410Z,12.17
2023-02-18T18:20:34.900Z,12.14
2023-02-18T18:23:07.730Z,12.12
2023-02-18T18:25:46.871Z,12.10
2023-02-18T18:28:17.711Z,12.09
2023-02-18T18:30:52.388Z,12.09
2023-02-18T18:33:28.167Z,12.09
2023-02-18T18:36:02.458Z,12.07
2023-02-18T18:38:35.451Z,12.05
2023-02-18T18:41:10.923Z,12.02
2023-02-18T18:43:42.490Z,12.00
2023-02-18T18:46:13.486Z,11.99
2023-02-18T18:48:45.113Z,11.95
2023-02-18T18:51:17.175Z,11.91
2023-02-18T18:53:48.175Z,11.88
2023-02-18T18:56:18.870Z,11.87
2023-02-18T18:58:49.647Z,11.86
2023-02-18T19:01:27.180Z,11.85
2023-02-18T19:03:58.226Z,11.83
2023-02-18T19:06:31.190Z,11.81
2023-02-18T19:09:03.125Z,11.80
2023-02-18T19:11:35.870Z,11.79
2023-02-18T19:14:06.641Z,11.80
2023-02-18T19:16:40.653Z,11.81
2023-02-18T19:19:12.838Z,11.80
2023-02-18T19:21:59.382Z,11.79
2023-02-18T19:24:50.793Z,11.80
2023-02-18T19:27:26.092Z,11.80
2023-02-18T19:30:01.861Z,11.79
2023-02-18T19:32:35.228Z,11.76
2023-02-18T19:35:06.145Z,11.74
2023-02-18T19:37:37.369Z,11.73
2023-02-18T19:40:09.549Z,11.71
2023-02-18T19:42:41.224Z,11.69
2023-02-18T19:45:15.397Z,11.68
2023-02-18T19:47:49.398Z,11.67
2023-02-18T19:50:22.129Z,11.68
2023-02-18T19:52:56.416Z,11.68
2023-02-18T19:55:35.695Z,11.67
2023-02-18T19:58:10.795Z,11.65
2023-02-18T20:01:01.071Z,11.64
2023-02-18T20:04:37.704Z,11.60
2023-02-18T20:07:16.571Z,11.57
2023-02-18T20:10:05.883Z,11.56
2023-02-18T20:12:59.457Z,11.56
2023-02-18T20:15:32.553Z,11.56
2023-02-18T20:18:07.274Z,11.56
2023-02-18T20:20:45.334Z,11.56
2023-02-18T20:23:20.339Z,11.57
2023-02-18T20:25:52.233Z,11.59
2023-02-18T20:28:23.592Z,11.60
2023-02-18T20:31:05.276Z,11.63
2023-02-18T20:33:36.446Z,11.66
2023-02-18T20:36:09.483Z,11.68
2023-02-18T20:38:40.593Z,11.70
2023-02-18T20:41:15.290Z,11.73
2023-02-18T20:43:46.708Z,11.77
2023-02-18T20:46:23.335Z,11.79
2023-02-18T20:48:59.846Z,11.78
2023-02-18T20:57:50.316Z,11.67
2023-02-18T21:00:23.132Z,11.61
2023-02-18T21:02:54.125Z,11.56
2023-02-18T21:05:27.348Z,11.50
2023-02-18T21:07:58.113Z,11.44
2023-02-18T21:10:29.177Z,11.38
2023-02-18T21:13:00.051Z,11.32
2023-02-18T21:15:31.089Z,11.27
2023-02-18T21:18:01.896Z,11.20
2023-02-18T21:20:33.185Z,11.14
2023-02-18T21:23:04.941Z,11.09
2023-02-18T21:25:36.577Z,11.04
2023-02-18T21:28:08.241Z,10.99
2023-02-18T21:30:44.457Z,10.97
2023-02-18T21:33:17.783Z,10.93
2023-02-18T21:35:49.450Z,10.88
2023-02-18T21:38:20.276Z,10.78
2023-02-18T21:40:51.378Z,10.67
2023-02-18T21:43:22.267Z,10.58
2023-02-18T21:45:56.698Z,10.54
2023-02-18T21:48:47.123Z,10.52
2023-02-18T21:51:42.106Z,10.50
2023-02-18T21:54:16.060Z,10.47
2023-02-18T21:56:52.100Z,10.41
2023-02-18T21:59:27.469Z,10.35
2023-02-18T22:01:59.921Z,10.31
2023-02-18T22:04:31.669Z,10.23
2023-02-18T22:07:06.374Z,10.18
2023-02-18T22:09:38.187Z,10.16
2023-02-18T22:12:12.078Z,10.14
2023-02-18T22:14:45.329Z,10.15
2023-02-18T22:17:16.746Z,10.17
2023-02-18T22:19:47.990Z,10.18
2023-02-18T22:22:18.870Z,10.19
2023-02-18T22:24:49.798Z,10.18
2023-02-18T22:27:20.714Z,10.17
2023-02-18T22:29:54.089Z,10.16
2023-02-18T22:32:25.034Z,10.18
2023-02-18T22:34:56.153Z,10.21
2023-02-18T22:37:27.097Z,10.28
2023-02-18T22:39:57.934Z,10.37
2023-02-18T22:42:28.801Z,10.47
2023-02-18T22:45:02.887Z,10.60
2023-02-18T22:47:34.674Z,10.70
2023-02-18T22:50:05.854Z,10.80
2023-02-18T22:52:37.492Z,10.88
2023-02-18T22:55:10.446Z,10.93
2023-02-18T22:57:41.360Z,10.97
2023-02-18T23:00:13.677Z,10.99
2023-02-18T23:02:44.648Z,10.99
2023-02-18T23:05:15.645Z,10.98
2023-02-18T23:07:46.513Z,10.97
2023-02-18T23:10:18.087Z,10.94
2023-02-18T23:12:49.013Z,10.92
2023-02-18T23:15:21.075Z,10.90
2023-02-18T23:17:51.935Z,10.89
2023-02-18T23:20:37.946Z,10.88
2023-02-18T23:23:08.876Z,10.86
2023-02-18T23:25:57.129Z,10.86
2023-02-18T23:28:29.094Z,10.82
2023-02-18T23:30:59.951Z,10.80
2023-02-18T23:33:30.885Z,10.80
2023-02-18T23:36:10.475Z,10.81
2023-02-18T23:38:41.260Z,10.83
2023-02-18T23:41:12.378Z,10.82
2023-02-18T23:43:43.281Z,10.80
2023-02-18T23:46:14.524Z,10.79
2023-02-18T23:48:45.609Z,10.78
2023-02-18T23:51:17.069Z,10.76
2023-02-18T23:53:47.990Z,10.72
2023-02-18T23:56:19.551Z,10.72
2023-02-18T23:58:52.757Z,10.70
